Time;durP1;ratioP1;P1;durP2;ratioP2;P2;SDS_P1;SDS_P2;PMS_P1;PMS_P2;Temp;Humidity;BMP_temperature;BMP_pressure;BME280_temperature;BME280_humidity;BME280_pressure;Samples;Min_cycle;Max_cycle;Signal;HPM_P1;HPM_P2
2023/04/06 00:01:31;;;;;;;10.95;5.40;;;3.00;48.70;;;;;;5027941;28;20145;-64
2023/04/06 00:03:56;;;;;;;8.75;5.10;;;3.00;48.70;;;;;;5033403;28;20029;-63
2023/04/06 00:06:22;;;;;;;8.70;4.95;;;3.00;48.80;;;;;;5025022;28;20029;-62
2023/04/06 00:08:48;;;;;;;5.43;3.95;;;2.90;48.90;;;;;;5028066;28;20081;-62
2023/04/06 00:11:13;;;;;;;7.65;4.75;;;2.90;49.00;;;;;;5030916;28;20033;-63
2023/04/06 00:13:39;;;;;;;6.88;4.75;;;2.90;49.60;;;;;;5032355;28;20025;-61
2023/04/06 00:16:05;;;;;;;10.07;5.20;;;2.90;49.10;;;;;;5020567;28;20040;-61
2023/04/06 00:18:31;;;;;;;8.80;4.97;;;2.80;49.10;;;;;;5028516;28;20041;-64
2023/04/06 00:20:57;;;;;;;7.45;4.68;;;2.80;49.20;;;;;;5026439;28;20034;-62
2023/04/06 00:23:23;;;;;;;9.00;4.53;;;2.80;49.30;;;;;;5031314;28;20079;-63
2023/04/06 00:25:49;;;;;;;9.20;5.13;;;2.80;49.30;;;;;;5023307;28;20025;-63
2023/04/06 00:28:14;;;;;;;9.85;4.75;;;2.80;49.30;;;;;;5021103;28;20026;-62
2023/04/06 00:30:41;;;;;;;11.38;5.47;;;2.80;49.90;;;;;;5018269;28;20059;-63
2023/04/06 00:33:06;;;;;;;9.80;4.78;;;2.70;49.20;;;;;;5027162;28;20085;-63
2023/04/06 00:35:32;;;;;;;10.40;4.93;;;2.70;49.10;;;;;;5025808;28;20068;-62
2023/04/06 00:37:58;;;;;;;7.60;4.75;;;2.60;49.10;;;;;;5016114;28;20026;-62
2023/04/06 00:40:24;;;;;;;7.18;4.30;;;2.60;49.20;;;;;;5020030;28;20125;-63
2023/04/06 00:42:49;;;;;;;6.93;4.55;;;2.60;49.50;;;;;;4950653;28;20037;-62
2023/04/06 00:45:15;;;;;;;6.53;4.35;;;2.50;49.60;;;;;;5020307;28;20029;-63
2023/04/06 00:47:41;;;;;;;7.55;4.70;;;2.50;49.60;;;;;;5059400;28;20083;-63
2023/04/06 00:50:07;;;;;;;7.82;4.25;;;2.50;49.60;;;;;;5045920;28;20030;-62
2023/04/06 00:52:34;;;;;;;6.80;4.43;;;2.50;49.60;;;;;;5027226;28;20030;-62
2023/04/06 00:55:00;;;;;;;7.38;4.45;;;2.50;49.60;;;;;;5027771;28;20097;-62
2023/04/06 00:57:26;;;;;;;9.13;4.70;;;2.40;49.60;;;;;;5021303;28;20041;-62
2023/04/06 00:59:52;;;;;;;10.73;4.68;;;2.40;49.60;;;;;;5032473;28;20046;-62
2023/04/06 01:02:18;;;;;;;10.70;4.85;;;2.40;49.80;;;;;;5038428;28;20104;-62
2023/04/06 01:04:45;;;;;;;6.97;4.88;;;2.40;50.00;;;;;;5027780;28;20068;-61
2023/04/06 01:07:11;;;;;;;9.57;5.10;;;2.30;50.10;;;;;;5022687;28;20080;-63
2023/04/06 01:09:36;;;;;;;10.23;5.15;;;2.30;50.30;;;;;;5025377;28;20018;-63
2023/04/06 01:12:03;;;;;;;11.35;4.65;;;2.30;50.50;;;;;;5024250;28;20120;-62
2023/04/06 01:14:29;;;;;;;7.80;4.53;;;2.30;50.60;;;;;;5015779;28;20025;-63
2023/04/06 01:16:58;;;;;;;6.32;4.68;;;2.20;50.70;;;;;;5022656;28;20054;-62
2023/04/06 01:19:23;;;;;;;8.23;5.10;;;2.20;50.70;;;;;;5022036;28;20042;-64
2023/04/06 01:21:50;;;;;;;7.47;4.50;;;2.20;50.50;;;;;;5030620;28;20117;-64
2023/04/06 01:24:16;;;;;;;7.57;4.13;;;2.20;50.30;;;;;;5021415;28;20488;-63
2023/04/06 01:26:44;;;;;;;8.30;5.30;;;2.10;50.20;;;;;;5034403;28;20036;-62
2023/04/06 01:29:10;;;;;;;8.90;4.93;;;2.10;50.20;;;;;;5026651;28;20037;-64
2023/04/06 01:31:35;;;;;;;6.43;4.55;;;2.10;50.20;;;;;;5026196;28;20373;-62
2023/04/06 01:34:01;;;;;;;10.15;4.72;;;2.00;50.00;;;;;;5031269;28;20044;-63
2023/04/06 01:36:27;;;;;;;7.57;4.63;;;2.00;50.10;;;;;;5040758;28;20053;-62
2023/04/06 01:38:52;;;;;;;8.80;5.40;;;2.00;50.30;;;;;;5018858;28;20026;-63
2023/04/06 01:41:18;;;;;;;10.50;5.72;;;1.90;50.20;;;;;;5021107;28;20022;-62
2023/04/06 01:43:46;;;;;;;14.40;5.22;;;1.90;50.30;;;;;;5034571;28;20067;-64
2023/04/06 01:46:11;;;;;;;8.85;4.72;;;1.90;50.60;;;;;;5018912;28;20026;-62
2023/04/06 01:48:37;;;;;;;13.50;5.03;;;1.80;50.70;;;;;;5019689;28;20536;-62
2023/04/06 01:51:03;;;;;;;7.43;4.50;;;1.80;51.00;;;;;;5019648;28;20026;-63
2023/04/06 01:53:28;;;;;;;4.97;3.72;;;1.80;51.00;;;;;;5038888;28;20018;-62
2023/04/06 01:55:54;;;;;;;6.32;3.95;;;1.80;51.00;;;;;;5029239;28;20060;-63
2023/04/06 01:58:20;;;;;;;7.18;4.13;;;1.80;50.70;;;;;;5030725;28;20032;-61
2023/04/06 02:00:45;;;;;;;11.70;4.32;;;1.80;50.60;;;;;;5020795;28;20117;-62
2023/04/06 02:03:11;;;;;;;10.32;4.68;;;1.80;50.60;;;;;;5038834;28;20033;-61
2023/04/06 02:05:37;;;;;;;15.57;5.20;;;1.80;50.60;;;;;;5019185;28;20036;-62
2023/04/06 02:08:05;;;;;;;8.55;4.50;;;1.70;50.70;;;;;;5029878;28;20236;-62
2023/04/06 02:10:31;;;;;;;7.00;4.25;;;1.70;50.70;;;;;;5023311;28;20385;-62
2023/04/06 02:12:57;;;;;;;6.82;4.45;;;1.70;50.70;;;;;;5019299;28;20049;-62
2023/04/06 02:15:22;;;;;;;6.40;4.47;;;1.70;50.80;;;;;;5054835;28;20073;-62
2023/04/06 02:17:48;;;;;;;9.40;4.75;;;1.70;51.00;;;;;;5020788;28;20081;-62
2023/04/06 02:20:14;;;;;;;5.93;4.13;;;1.70;51.10;;;;;;5023830;28;20553;-61
2023/04/06 02:22:40;;;;;;;8.65;4.18;;;1.60;51.10;;;;;;5044919;28;20087;-63
2023/04/06 02:25:06;;;;;;;6.07;4.40;;;1.60;51.00;;;;;;5049326;28;20053;-62
2023/04/06 02:27:31;;;;;;;6.57;4.35;;;1.60;50.90;;;;;;5054520;28;20033;-60
2023/04/06 02:29:57;;;;;;;6.53;4.10;;;1.60;51.00;;;;;;5020564;28;20029;-62
2023/04/06 02:32:23;;;;;;;6.38;4.30;;;1.50;50.80;;;;;;5024350;28;20034;-62
2023/04/06 02:34:49;;;;;;;9.45;5.70;;;1.50;50.80;;;;;;5023434;28;20044;-62
2023/04/06 02:37:14;;;;;;;5.57;4.32;;;1.50;50.90;;;;;;5025214;28;20113;-63
2023/04/06 02:39:40;;;;;;;18.85;4.95;;;1.40;50.80;;;;;;5022304;28;20112;-62
2023/04/06 02:42:06;;;;;;;8.45;4.43;;;1.40;50.80;;;;;;5030239;28;20033;-62
2023/04/06 02:44:32;;;;;;;7.32;3.90;;;1.40;50.80;;;;;;5017312;28;20033;-62
2023/04/06 02:46:57;;;;;;;6.82;4.57;;;1.30;50.80;;;;;;5025372;28;20038;-61
2023/04/06 02:49:23;;;;;;;5.30;4.07;;;1.60;51.10;;;;;;5024943;28;20038;-62
2023/04/06 02:51:49;;;;;;;6.22;4.40;;;1.20;50.90;;;;;;5025265;28;20026;-63
2023/04/06 02:54:14;;;;;;;5.55;4.13;;;1.20;50.90;;;;;;5041599;28;20044;-62
2023/04/06 02:56:40;;;;;;;8.43;4.43;;;1.20;51.00;;;;;;5025656;28;20034;-62
2023/04/06 02:59:06;;;;;;;9.05;4.75;;;1.10;51.00;;;;;;5029530;28;20413;-63
2023/04/06 03:01:32;;;;;;;7.30;4.68;;;1.10;51.00;;;;;;5044162;28;20026;-62
2023/04/06 03:03:57;;;;;;;10.18;4.93;;;1.10;51.10;;;;;;5028121;28;20093;-62
2023/04/06 03:06:23;;;;;;;14.60;4.80;;;1.00;51.20;;;;;;5024538;28;20394;-63
2023/04/06 03:08:49;;;;;;;10.05;4.88;;;1.00;51.60;;;;;;5041133;28;20048;-62
2023/04/06 03:11:14;;;;;;;11.88;3.90;;;1.00;51.80;;;;;;5027139;28;20077;-63
2023/04/06 03:13:40;;;;;;;8.05;4.45;;;1.00;51.90;;;;;;5062826;28;20078;-62
2023/04/06 03:16:06;;;;;;;6.57;4.10;;;1.00;51.90;;;;;;5033584;28;20025;-63
2023/04/06 03:18:32;;;;;;;6.57;4.25;;;1.10;51.80;;;;;;5029161;28;20029;-62
2023/04/06 03:20:59;;;;;;;6.47;4.55;;;1.00;51.70;;;;;;5021634;28;20025;-62
2023/04/06 03:23:25;;;;;;;13.02;4.68;;;1.00;51.70;;;;;;5024208;28;20029;-62
2023/04/06 03:25:51;;;;;;;11.82;5.20;;;1.30;52.00;;;;;;5016007;28;20033;-62
2023/04/06 03:28:17;;;;;;;6.43;4.50;;;1.00;51.90;;;;;;5022429;28;20033;-62
2023/04/06 03:30:42;;;;;;;7.90;4.88;;;1.00;51.90;;;;;;5035213;28;20029;-62
2023/04/06 03:33:08;;;;;;;7.03;4.60;;;1.00;51.90;;;;;;5034474;28;20036;-62
2023/04/06 03:35:34;;;;;;;7.65;4.28;;;1.00;51.90;;;;;;5027559;28;20041;-62
2023/04/06 03:38:00;;;;;;;9.73;4.72;;;0.90;51.80;;;;;;5024307;28;20384;-61
2023/04/06 03:40:25;;;;;;;8.05;4.80;;;0.90;51.80;;;;;;5026477;28;20053;-62
2023/04/06 03:42:51;;;;;;;7.90;5.00;;;0.90;51.90;;;;;;5026604;28;20030;-63
2023/04/06 03:45:17;;;;;;;9.50;4.45;;;0.80;52.10;;;;;;5031564;28;20117;-62
2023/04/06 03:47:43;;;;;;;7.95;4.53;;;0.80;52.00;;;;;;5027755;28;20030;-61
2023/04/06 03:50:09;;;;;;;8.40;4.45;;;0.80;51.70;;;;;;5025920;28;20034;-62
2023/04/06 03:52:36;;;;;;;11.30;4.90;;;0.80;51.70;;;;;;5022846;28;20048;-62
2023/04/06 03:55:02;;;;;;;7.93;5.10;;;0.80;51.90;;;;;;5029024;28;20083;-63
2023/04/06 03:57:27;;;;;;;11.57;5.13;;;0.80;52.10;;;;;;5023529;28;20053;-61
2023/04/06 03:59:53;;;;;;;9.70;5.18;;;0.80;52.30;;;;;;5031181;28;20068;-62
2023/04/06 04:02:18;;;;;;;11.38;5.00;;;0.70;52.40;;;;;;5048179;28;20025;-62
2023/04/06 04:04:44;;;;;;;6.68;4.75;;;0.90;52.70;;;;;;5027262;28;20022;-63
2023/04/06 04:07:10;;;;;;;8.88;5.05;;;0.70;52.50;;;;;;5031596;28;20087;-62
2023/04/06 04:09:36;;;;;;;8.77;4.93;;;0.80;52.60;;;;;;5055544;28;20095;-62
2023/04/06 04:12:02;;;;;;;8.82;5.28;;;0.70;53.10;;;;;;5026561;28;20025;-62
2023/04/06 04:14:28;;;;;;;10.82;5.30;;;0.70;52.40;;;;;;5025190;28;20040;-63
2023/04/06 04:16:53;;;;;;;15.90;5.18;;;0.80;52.60;;;;;;5024093;28;20036;-62
2023/04/06 04:19:19;;;;;;;9.27;5.28;;;0.70;52.40;;;;;;5031439;28;20060;-62
2023/04/06 04:21:46;;;;;;;10.32;5.05;;;0.60;52.30;;;;;;5020638;28;20030;-62
2023/04/06 04:24:12;;;;;;;9.32;4.82;;;0.60;52.40;;;;;;5019347;28;20026;-62
2023/04/06 04:26:38;;;;;;;8.38;4.95;;;0.60;52.50;;;;;;5036806;28;20036;-62
2023/04/06 04:29:04;;;;;;;9.02;5.00;;;0.80;52.80;;;;;;5029627;28;20064;-61
2023/04/06 04:31:30;;;;;;;7.70;4.88;;;0.60;52.80;;;;;;5025320;28;20026;-62
2023/04/06 04:33:57;;;;;;;7.40;4.55;;;0.60;52.90;;;;;;5034766;28;20034;-62
2023/04/06 04:36:24;;;;;;;8.80;4.97;;;0.60;52.90;;;;;;5032687;28;20048;-63
2023/04/06 04:38:50;;;;;;;9.15;4.55;;;0.60;52.90;;;;;;5034052;28;20026;-62
2023/04/06 04:41:15;;;;;;;9.98;5.20;;;0.60;52.80;;;;;;5034468;28;20516;-62
2023/04/06 04:43:41;;;;;;;12.23;5.32;;;0.60;53.00;;;;;;5032526;28;20021;-62
2023/04/06 04:46:07;;;;;;;7.25;4.75;;;0.80;53.30;;;;;;5050583;28;20037;-62
2023/04/06 04:48:32;;;;;;;9.90;5.57;;;0.50;53.20;;;;;;5023110;28;20037;-61
2023/04/06 04:50:58;;;;;;;9.20;5.85;;;0.60;53.20;;;;;;5033731;28;20030;-62
2023/04/06 04:53:24;;;;;;;12.27;5.40;;;0.50;53.00;;;;;;5027340;28;20045;-61
2023/04/06 04:55:49;;;;;;;10.27;5.13;;;0.50;53.00;;;;;;5023085;28;20038;-62
2023/04/06 04:58:16;;;;;;;9.40;5.20;;;0.50;53.00;;;;;;5030306;28;20041;-63
2023/04/06 05:00:42;;;;;;;16.25;5.40;;;0.60;52.90;;;;;;5027895;28;20040;-62
2023/04/06 05:03:09;;;;;;;8.30;5.45;;;0.80;52.70;;;;;;5027395;28;20030;-62
2023/04/06 05:05:35;;;;;;;8.68;5.10;;;0.50;52.60;;;;;;5029245;28;20026;-61
2023/04/06 05:08:01;;;;;;;15.70;6.93;;;0.80;53.00;;;;;;5030860;28;20092;-61
2023/04/06 05:10:27;;;;;;;27.70;9.23;;;0.70;53.20;;;;;;5032712;28;20083;-62
2023/04/06 05:12:53;;;;;;;23.63;7.65;;;0.60;53.10;;;;;;5035330;28;20025;-62
2023/04/06 05:15:18;;;;;;;13.23;6.22;;;0.80;53.10;;;;;;5030069;28;20032;-63
2023/04/06 05:17:44;;;;;;;10.70;5.72;;;0.50;52.90;;;;;;5030454;28;20073;-62
2023/04/06 05:20:10;;;;;;;9.27;5.22;;;0.50;53.00;;;;;;5039874;28;20042;-62
2023/04/06 05:22:36;;;;;;;9.18;5.07;;;0.50;53.40;;;;;;5036781;28;20044;-62
2023/04/06 05:25:03;;;;;;;8.60;5.38;;;0.50;53.60;;;;;;5031630;28;20093;-61
2023/04/06 05:27:28;;;;;;;9.40;5.35;;;0.50;53.80;;;;;;5039707;28;20025;-62
2023/04/06 05:29:54;;;;;;;10.52;5.10;;;0.60;53.90;;;;;;5036752;28;20518;-63
2023/04/06 05:32:21;;;;;;;14.77;5.75;;;0.60;53.90;;;;;;5068028;28;20111;-62
2023/04/06 05:34:49;;;;;;;9.05;5.38;;;0.70;54.20;;;;;;5035056;28;20026;-61
2023/04/06 05:37:16;;;;;;;10.50;5.28;;;0.80;54.40;;;;;;5034818;28;20042;-61
2023/04/06 05:39:42;;;;;;;11.13;5.72;;;0.90;54.40;;;;;;5037734;28;20091;-61
2023/04/06 05:42:07;;;;;;;11.15;5.68;;;1.20;54.20;;;;;;5032757;28;20364;-62
2023/04/06 05:44:33;;;;;;;10.05;6.03;;;1.00;54.10;;;;;;5030829;28;20078;-61
2023/04/06 05:46:59;;;;;;;12.27;6.35;;;1.10;54.10;;;;;;5033346;28;20040;-62
2023/04/06 05:49:24;;;;;;;12.85;6.85;;;1.20;54.10;;;;;;5024491;28;20072;-62
2023/04/06 05:51:50;;;;;;;16.63;7.38;;;1.30;54.10;;;;;;5017112;28;20146;-61
2023/04/06 05:54:16;;;;;;;17.85;7.47;;;1.40;54.10;;;;;;5030083;28;20033;-62
2023/04/06 05:56:41;;;;;;;12.15;7.10;;;1.50;54.00;;;;;;5030426;28;20488;-63
2023/04/06 05:59:07;;;;;;;20.90;8.10;;;1.60;54.10;;;;;;5031258;28;20107;-63
2023/04/06 06:01:34;;;;;;;22.35;7.20;;;1.70;54.00;;;;;;5032354;28;20096;-63
2023/04/06 06:04:01;;;;;;;14.38;6.88;;;1.90;54.00;;;;;;5024892;28;20021;-66
2023/04/06 06:06:29;;;;;;;15.05;7.43;;;2.00;53.80;;;;;;5020791;28;20457;-66
2023/04/06 06:08:58;;;;;;;12.68;7.05;;;2.10;53.80;;;;;;5033860;28;20025;-66
2023/04/06 06:11:24;;;;;;;10.75;6.25;;;2.20;53.90;;;;;;5036206;28;20049;-65
2023/04/06 06:13:50;;;;;;;10.50;6.13;;;2.40;53.90;;;;;;5023361;28;20030;-65
2023/04/06 06:16:17;;;;;;;10.65;6.43;;;2.50;54.00;;;;;;5020380;28;20025;-65
2023/04/06 06:18:42;;;;;;;13.90;6.43;;;2.60;54.10;;;;;;5023503;28;20016;-66
2023/04/06 06:21:09;;;;;;;13.32;7.05;;;2.80;54.00;;;;;;5022141;28;20448;-66
2023/04/06 06:23:34;;;;;;;12.48;6.82;;;2.90;53.90;;;;;;5030670;28;20041;-65
2023/04/06 06:26:01;;;;;;;14.60;6.20;;;3.00;53.80;;;;;;5019218;28;20449;-66
2023/04/06 06:28:26;;;;;;;12.20;5.78;;;3.20;53.70;;;;;;5025230;28;20025;-65
2023/04/06 06:30:52;;;;;;;10.80;6.25;;;3.30;53.80;;;;;;5029893;28;20034;-66
2023/04/06 06:33:18;;;;;;;13.73;5.90;;;3.40;53.70;;;;;;5031105;28;20029;-65
2023/04/06 06:35:44;;;;;;;11.43;6.10;;;3.60;53.70;;;;;;5028692;28;20060;-66
2023/04/06 06:38:10;;;;;;;10.88;6.05;;;3.70;53.60;;;;;;5021037;28;20026;-66
2023/04/06 06:40:35;;;;;;;11.25;6.05;;;3.80;53.40;;;;;;5022524;28;20583;-66
2023/04/06 06:43:01;;;;;;;10.35;5.65;;;4.00;53.40;;;;;;5036037;28;20110;-65
2023/04/06 06:45:27;;;;;;;8.82;5.70;;;4.10;53.30;;;;;;5028879;28;20026;-66
2023/04/06 06:47:52;;;;;;;13.50;5.95;;;4.20;53.20;;;;;;5025330;28;20033;-65
2023/04/06 06:50:18;;;;;;;13.07;6.60;;;4.30;53.20;;;;;;5021832;28;20094;-65
2023/04/06 06:52:44;;;;;;;12.70;6.18;;;4.50;53.20;;;;;;5029307;28;20056;-66
2023/04/06 06:55:11;;;;;;;11.88;6.35;;;4.60;53.10;;;;;;5027294;28;20033;-65
2023/04/06 06:57:36;;;;;;;10.98;5.93;;;4.70;53.00;;;;;;5039987;28;20033;-65
2023/04/06 07:00:05;;;;;;;8.88;6.25;;;4.90;53.00;;;;;;5017811;28;20110;-65
2023/04/06 07:02:30;;;;;;;12.65;6.38;;;5.00;52.90;;;;;;5026077;28;20072;-65
2023/04/06 07:04:56;;;;;;;10.45;6.78;;;5.10;52.70;;;;;;5026413;28;20033;-65
2023/04/06 07:07:22;;;;;;;10.52;6.97;;;5.20;52.60;;;;;;5034822;28;20022;-66
2023/04/06 07:09:48;;;;;;;12.48;7.18;;;5.40;52.50;;;;;;5024134;28;20041;-65
2023/04/06 07:12:13;;;;;;;12.80;6.90;;;5.50;52.30;;;;;;5021290;28;20144;-66
2023/04/06 07:14:39;;;;;;;14.15;7.35;;;5.60;52.30;;;;;;5057654;28;20026;-64
2023/04/06 07:17:05;;;;;;;12.93;7.50;;;5.70;52.10;;;;;;5027311;28;20116;-65
2023/04/06 07:19:30;;;;;;;11.30;7.30;;;5.90;52.00;;;;;;5022039;28;20040;-64
2023/04/06 07:21:56;;;;;;;15.75;8.13;;;6.00;51.80;;;;;;5026347;28;20095;-64
2023/04/06 07:24:22;;;;;;;16.00;8.02;;;6.10;51.70;;;;;;5025938;28;20388;-65
2023/04/06 07:26:47;;;;;;;13.55;7.57;;;6.30;51.60;;;;;;5026266;28;20034;-66
2023/04/06 07:29:13;;;;;;;14.07;7.47;;;6.40;51.50;;;;;;5019285;28;20030;-65
2023/04/06 07:31:38;;;;;;;12.70;8.05;;;6.60;51.50;;;;;;5027441;28;20080;-64
2023/04/06 07:34:04;;;;;;;11.07;6.88;;;6.70;51.40;;;;;;5038896;28;20049;-65
2023/04/06 07:36:30;;;;;;;15.38;8.10;;;6.90;51.30;;;;;;5013487;28;20042;-65
2023/04/06 07:38:56;;;;;;;11.88;7.50;;;7.00;51.00;;;;;;5022385;28;20037;-67
2023/04/06 07:41:23;;;;;;;13.02;7.32;;;7.20;50.80;;;;;;5021215;28;20026;-65
2023/04/06 07:43:49;;;;;;;14.30;8.10;;;7.30;50.70;;;;;;5015370;28;20111;-65
2023/04/06 07:46:15;;;;;;;9.43;7.07;;;7.50;50.50;;;;;;5023634;28;20033;-66
2023/04/06 07:48:40;;;;;;;12.40;6.97;;;7.60;50.40;;;;;;5019982;28;20036;-65
2023/04/06 07:51:06;;;;;;;11.18;7.38;;;7.80;50.10;;;;;;5047443;28;20093;-65
2023/04/06 07:53:32;;;;;;;11.77;7.50;;;7.90;49.70;;;;;;5021635;28;20450;-65
2023/04/06 07:55:58;;;;;;;13.35;7.43;;;8.00;49.50;;;;;;5024053;28;20026;-64
2023/04/06 07:58:24;;;;;;;11.23;7.70;;;8.20;49.40;;;;;;5026603;28;20028;-64
2023/04/06 08:00:50;;;;;;;14.73;8.48;;;8.30;49.20;;;;;;5031901;28;20120;-65
2023/04/06 08:03:16;;;;;;;11.25;8.10;;;8.40;49.00;;;;;;5035598;28;20049;-65
2023/04/06 08:05:42;;;;;;;10.65;8.07;;;8.50;48.70;;;;;;5057430;28;20021;-66
2023/04/06 08:08:08;;;;;;;12.43;7.80;;;8.60;48.50;;;;;;5034394;28;20495;-65
2023/04/06 08:10:34;;;;;;;14.85;8.75;;;8.80;48.30;;;;;;5055080;28;20076;-65
2023/04/06 08:13:00;;;;;;;12.23;7.78;;;8.90;48.00;;;;;;5030007;28;20031;-65
2023/04/06 08:15:26;;;;;;;11.85;7.85;;;9.00;47.80;;;;;;5036298;28;20041;-66
2023/04/06 08:17:52;;;;;;;12.90;8.65;;;9.10;47.60;;;;;;5025372;28;20480;-66
2023/04/06 08:20:17;;;;;;;19.15;7.80;;;9.20;47.30;;;;;;5033611;28;20033;-65
2023/04/06 08:22:43;;;;;;;14.90;8.38;;;9.30;47.10;;;;;;5036583;28;20077;-65
2023/04/06 08:25:09;;;;;;;14.18;8.70;;;9.40;47.20;;;;;;5020002;28;20068;-66
2023/04/06 08:27:35;;;;;;;17.50;9.23;;;9.50;47.10;;;;;;5032810;28;20101;-66
2023/04/06 08:30:01;;;;;;;13.00;8.40;;;9.70;46.90;;;;;;5034935;28;20029;-66
2023/04/06 08:32:27;;;;;;;14.02;8.05;;;9.80;46.60;;;;;;5033150;28;20022;-66
2023/04/06 08:34:55;;;;;;;11.70;7.75;;;9.90;46.50;;;;;;5034068;28;20566;-66
2023/04/06 08:37:22;;;;;;;16.02;9.13;;;10.10;46.40;;;;;;5031875;28;20060;-65
2023/04/06 08:39:47;;;;;;;11.73;8.35;;;10.20;46.40;;;;;;4946164;28;20046;-66
2023/04/06 08:42:20;;;;;;;14.57;8.25;;;10.30;46.20;;;;;;5033240;28;20029;-65
2023/04/06 08:44:48;;;;;;;12.07;8.35;;;10.50;45.60;;;;;;5034126;28;20030;-66
2023/04/06 08:47:13;;;;;;;13.82;8.85;;;10.60;46.00;;;;;;5017493;28;20511;-66
2023/04/06 08:49:39;;;;;;;13.20;8.52;;;10.70;45.70;;;;;;5033203;28;20025;-66
2023/04/06 08:52:07;;;;;;;13.68;8.45;;;10.90;45.40;;;;;;5029893;28;20101;-65
2023/04/06 08:54:34;;;;;;;13.60;8.63;;;11.00;45.40;;;;;;5025529;28;20044;-65
2023/04/06 08:57:00;;;;;;;17.40;8.57;;;11.20;45.10;;;;;;5023032;28;20049;-66
2023/04/06 08:59:27;;;;;;;15.00;8.45;;;11.30;45.00;;;;;;5035322;28;20102;-66
2023/04/06 09:01:54;;;;;;;13.63;9.10;;;11.50;44.60;;;;;;5030375;28;20022;-65
2023/04/06 09:04:20;;;;;;;12.30;8.38;;;11.60;44.50;;;;;;5023426;28;20021;-65
2023/04/06 09:06:45;;;;;;;14.60;8.82;;;11.80;44.20;;;;;;5023066;28;20864;-66
2023/04/06 09:09:11;;;;;;;12.93;8.65;;;11.90;44.20;;;;;;5023232;28;20104;-66
2023/04/06 09:11:47;;;;;;;13.63;9.35;;;12.00;44.00;;;;;;5027003;28;20018;-67
2023/04/06 09:14:13;;;;;;;13.88;8.38;;;12.20;43.40;;;;;;5023553;28;20033;-64
2023/04/06 09:16:45;;;;;;;15.38;9.05;;;12.30;43.80;;;;;;5028784;28;20022;-65
2023/04/06 09:19:12;;;;;;;15.65;8.80;;;12.50;43.40;;;;;;5029730;28;20030;-66
2023/04/06 09:21:39;;;;;;;17.90;9.05;;;12.60;43.30;;;;;;5028321;28;20091;-66
2023/04/06 09:24:07;;;;;;;14.98;9.30;;;12.70;42.00;;;;;;5031549;28;20488;-65
2023/04/06 09:26:44;;;;;;;13.95;8.45;;;12.90;42.50;;;;;;5026602;28;20037;-65
2023/04/06 09:29:10;;;;;;;14.95;8.40;;;13.00;41.70;;;;;;5059104;28;20112;-65
2023/04/06 09:31:36;;;;;;;13.15;8.18;;;13.10;42.80;;;;;;5052332;28;20064;-66
2023/04/06 09:34:02;;;;;;;10.98;8.13;;;13.30;42.10;;;;;;5048717;28;20026;-66
2023/04/06 09:36:31;;;;;;;12.23;8.27;;;13.40;41.90;;;;;;5030664;28;20069;-66
2023/04/06 09:39:05;;;;;;;12.50;8.23;;;13.50;41.20;;;;;;5028278;28;20045;-66
2023/04/06 09:41:33;;;;;;;9.82;6.05;;;13.60;41.40;;;;;;5027092;28;20074;-66
2023/04/06 09:44:07;;;;;;;11.90;8.13;;;13.70;41.40;;;;;;5030357;28;20392;-66
2023/04/06 09:46:34;;;;;;;12.20;8.20;;;13.90;40.80;;;;;;5041884;28;20044;-65
2023/04/06 09:49:02;;;;;;;14.70;8.35;;;14.10;40.90;;;;;;5035600;28;20550;-66
2023/04/06 09:51:31;;;;;;;12.27;8.55;;;14.20;40.60;;;;;;5029960;28;20060;-65
2023/04/06 09:54:01;;;;;;;12.52;8.25;;;14.30;39.40;;;;;;5032000;28;20049;-66
2023/04/06 09:56:30;;;;;;;12.98;8.27;;;14.30;39.50;;;;;;5032369;28;20100;-66
2023/04/06 09:59:02;;;;;;;13.80;7.78;;;14.40;39.00;;;;;;5024313;28;20034;-65
2023/04/06 10:01:31;;;;;;;10.48;7.15;;;14.50;38.60;;;;;;5025434;28;20017;-66
2023/04/06 10:04:17;;;;;;;11.27;7.05;;;14.50;38.70;;;;;;5033844;28;20097;-66
2023/04/06 10:06:47;;;;;;;11.35;7.35;;;14.60;37.70;;;;;;5029679;28;20030;-66
2023/04/06 10:09:14;;;;;;;10.32;6.95;;;14.70;38.00;;;;;;5032998;28;20028;-65
2023/04/06 10:11:40;;;;;;;8.45;6.57;;;14.80;38.10;;;;;;5023539;28;20021;-65
2023/04/06 10:14:06;;;;;;;10.05;7.13;;;14.90;37.90;;;;;;5026154;28;20034;-67
2023/04/06 10:16:32;;;;;;;10.02;6.90;;;15.00;38.10;;;;;;5030029;28;20026;-66
2023/04/06 10:19:15;;;;;;;11.77;7.32;;;15.10;38.00;;;;;;5019821;28;20034;-66
2023/04/06 10:21:46;;;;;;;9.55;6.78;;;15.20;36.40;;;;;;5032846;28;20029;-66
2023/04/06 10:24:13;;;;;;;8.73;6.90;;;15.40;37.20;;;;;;5035577;28;20036;-67
2023/04/06 10:26:39;;;;;;;11.38;7.07;;;15.50;37.50;;;;;;5040135;28;20061;-66
2023/04/06 10:29:06;;;;;;;9.20;7.15;;;15.70;37.30;;;;;;5021694;28;20022;-67
2023/04/06 10:31:32;;;;;;;9.93;6.75;;;15.80;37.10;;;;;;5022744;28;20037;-66
2023/04/06 10:34:02;;;;;;;8.02;6.53;;;16.00;36.70;;;;;;5025120;28;20049;-66
2023/04/06 10:36:33;;;;;;;9.10;6.07;;;16.10;35.40;;;;;;5053964;28;20054;-66
2023/04/06 10:39:04;;;;;;;9.23;6.78;;;16.20;36.00;;;;;;5025341;28;20424;-66
2023/04/06 10:41:42;;;;;;;8.95;6.07;;;16.30;35.80;;;;;;5018124;28;20026;-67
2023/04/06 10:44:20;;;;;;;10.40;6.53;;;16.40;35.50;;;;;;5015160;28;21425;-66
2023/04/06 10:46:53;;;;;;;8.68;6.70;;;16.50;35.10;;;;;;5019083;28;20116;-66
2023/04/06 10:49:20;;;;;;;9.50;7.13;;;16.60;35.20;;;;;;5015516;28;20022;-66
2023/04/06 10:51:50;;;;;;;13.55;7.07;;;16.70;35.20;;;;;;5016807;28;20988;-66
2023/04/06 10:54:16;;;;;;;8.13;6.22;;;16.70;34.80;;;;;;5019289;28;20037;-66
2023/04/06 10:56:42;;;;;;;9.80;6.85;;;16.70;34.80;;;;;;5020021;28;20026;-66
2023/04/06 10:59:07;;;;;;;10.68;6.65;;;16.70;35.00;;;;;;5035834;28;20067;-66
2023/04/06 11:01:33;;;;;;;8.88;6.05;;;16.80;35.00;;;;;;5032145;28;20051;-66
2023/04/06 11:03:59;;;;;;;11.02;5.80;;;16.90;35.80;;;;;;5017694;28;20026;-65
2023/04/06 11:06:28;;;;;;;8.50;6.68;;;16.90;34.80;;;;;;5025590;28;20057;-66
2023/04/06 11:08:55;;;;;;;9.65;6.95;;;17.00;33.80;;;;;;5023843;28;20040;-65
2023/04/06 11:11:23;;;;;;;9.65;7.43;;;17.00;33.00;;;;;;5017392;28;20052;-67
2023/04/06 11:13:51;;;;;;;10.23;7.35;;;17.00;33.80;;;;;;5025697;28;20030;-66
2023/04/06 11:16:20;;;;;;;13.25;7.07;;;17.00;33.80;;;;;;5023385;28;20049;-66
2023/04/06 11:19:03;;;;;;;9.25;7.18;;;16.90;34.00;;;;;;5020208;28;20036;-66
2023/04/06 11:21:46;;;;;;;10.68;7.55;;;17.00;32.70;;;;;;5028518;28;20079;-67
2023/04/06 11:24:17;;;;;;;10.77;7.70;;;17.10;33.10;;;;;;5028262;28;20030;-66
2023/04/06 11:26:57;;;;;;;14.05;6.88;;;17.10;33.60;;;;;;5019616;28;20026;-66
2023/04/06 11:29:28;;;;;;;10.85;7.13;;;17.10;33.10;;;;;;5017156;28;20018;-66
2023/04/06 11:32:04;;;;;;;10.88;7.05;;;17.10;32.90;;;;;;5020016;28;20038;-65
2023/04/06 11:34:36;;;;;;;11.40;6.68;;;17.10;33.30;;;;;;5030433;28;20028;-65
2023/04/06 11:37:07;;;;;;;11.30;7.70;;;17.10;33.90;;;;;;5029047;28;20140;-66
2023/04/06 11:39:40;;;;;;;11.25;7.13;;;17.20;33.10;;;;;;5046567;28;20084;-67
2023/04/06 11:42:06;;;;;;;10.35;7.20;;;17.20;32.70;;;;;;5022012;28;20040;-66
2023/04/06 11:44:42;;;;;;;10.88;7.53;;;17.20;32.70;;;;;;5042812;28;20038;-66
2023/04/06 11:47:10;;;;;;;11.15;7.25;;;17.10;32.10;;;;;;5031645;28;20037;-66
2023/04/06 11:49:42;;;;;;;9.02;7.03;;;17.10;32.20;;;;;;5027668;28;20500;-67
2023/04/06 11:52:25;;;;;;;12.25;6.55;;;17.20;32.00;;;;;;5030130;28;20029;-67
2023/04/06 11:54:56;;;;;;;8.52;6.85;;;16.90;31.60;;;;;;5016758;28;20025;-66
2023/04/06 11:57:25;;;;;;;10.32;6.38;;;16.80;32.00;;;;;;5030789;28;20033;-66
2023/04/06 11:59:51;;;;;;;8.13;6.45;;;16.70;32.10;;;;;;5035954;28;20048;-65
2023/04/06 12:02:17;;;;;;;9.77;7.20;;;16.50;32.10;;;;;;5032530;28;20022;-66
2023/04/06 12:04:44;;;;;;;13.63;7.88;;;16.40;32.20;;;;;;5027398;28;20461;-65
2023/04/06 12:07:09;;;;;;;9.77;7.35;;;16.30;32.20;;;;;;5031449;28;20048;-66
2023/04/06 12:09:36;;;;;;;10.60;7.43;;;16.20;32.30;;;;;;5026445;28;20017;-65
2023/04/06 12:12:03;;;;;;;10.63;7.65;;;16.10;32.40;;;;;;5034320;28;20026;-66
2023/04/06 12:14:30;;;;;;;9.10;7.28;;;16.00;32.30;;;;;;5039595;28;20022;-65
2023/04/06 12:16:57;;;;;;;9.02;7.43;;;15.90;32.80;;;;;;5026788;28;20516;-66
2023/04/06 12:19:25;;;;;;;13.13;7.72;;;15.80;33.10;;;;;;5028951;28;20034;-67
2023/04/06 12:21:52;;;;;;;12.05;7.90;;;15.80;33.20;;;;;;5024254;28;20045;-67
2023/04/06 12:24:17;;;;;;;9.27;6.97;;;15.80;33.00;;;;;;5020443;28;20024;-66
2023/04/06 12:26:43;;;;;;;12.38;7.07;;;15.80;32.90;;;;;;5031995;28;20455;-65
2023/04/06 12:29:09;;;;;;;12.25;6.45;;;15.80;32.90;;;;;;5030697;28;20026;-65
2023/04/06 12:31:36;;;;;;;11.10;7.53;;;15.70;33.10;;;;;;5035668;28;20021;-67
2023/04/06 12:34:03;;;;;;;10.20;6.82;;;15.80;33.20;;;;;;5026456;28;20048;-65
2023/04/06 12:36:29;;;;;;;9.00;6.90;;;15.90;33.70;;;;;;5025145;28;20105;-65
2023/04/06 12:38:55;;;;;;;8.25;6.53;;;16.00;33.60;;;;;;5026193;28;20015;-65
2023/04/06 12:41:21;;;;;;;13.02;7.35;;;16.10;33.30;;;;;;4931774;28;20023;-65
2023/04/06 12:43:48;;;;;;;9.65;7.35;;;16.30;32.80;;;;;;5022144;28;20022;-65
2023/04/06 12:46:13;;;;;;;10.63;6.82;;;16.40;32.80;;;;;;5031293;28;20030;-66